Time;durP1;ratioP1;P1;durP2;ratioP2;P2;SDS_P1;SDS_P2;PMS_P1;PMS_P2;Temp;Humidity;BMP_temperature;BMP_pressure;BME280_temperature;BME280_humidity;BME280_pressure;Samples;Min_cycle;Max_cycle;Signal;HPM_P1;HPM_P2
2021/09/15 00:00:54;;;;;;;5.07;4.30;;;18.60;99.90;;;;;;5050623;28;20462;-68
2021/09/15 00:03:21;;;;;;;5.70;5.10;;;18.60;99.90;;;;;;5050777;28;20471;-68
2021/09/15 00:05:48;;;;;;;4.70;4.30;;;18.60;99.90;;;;;;5050447;28;20462;-68
2021/09/15 00:08:14;;;;;;;5.43;4.87;;;18.60;99.90;;;;;;5050272;28;20483;-68
2021/09/15 00:10:41;;;;;;;5.80;5.20;;;18.60;99.90;;;;;;5049880;28;20463;-68
2021/09/15 00:13:09;;;;;;;5.70;5.13;;;18.70;99.90;;;;;;5050676;28;20465;-68
2021/09/15 00:15:36;;;;;;;8.03;5.20;;;18.70;99.90;;;;;;5050572;28;20461;-68
2021/09/15 00:18:03;;;;;;;6.17;4.93;;;18.80;99.90;;;;;;5128250;23;20498;-73
2021/09/15 00:20:30;;;;;;;11.10;4.83;;;18.80;99.90;;;;;;5070585;28;20837;-73
2021/09/15 00:22:56;;;;;;;5.43;5.00;;;18.90;99.90;;;;;;5070177;28;20462;-72
2021/09/15 00:25:23;;;;;;;6.70;5.03;;;18.90;99.90;;;;;;5070758;28;20828;-74
2021/09/15 00:27:50;;;;;;;5.70;5.00;;;19.00;99.90;;;;;;5069555;28;20548;-73
2021/09/15 00:30:18;;;;;;;7.13;4.53;;;19.00;99.90;;;;;;5070378;28;20461;-73
2021/09/15 00:32:45;;;;;;;6.10;4.87;;;19.00;99.90;;;;;;5070249;28;20455;-74
2021/09/15 00:35:12;;;;;;;4.50;4.10;;;18.90;99.90;;;;;;5070693;28;20455;-73
2021/09/15 00:37:38;;;;;;;6.20;5.13;;;18.90;99.90;;;;;;5069886;28;20478;-74
2021/09/15 00:40:06;;;;;;;4.50;4.10;;;18.90;99.90;;;;;;5070286;28;20990;-74
2021/09/15 00:42:33;;;;;;;6.43;4.60;;;18.90;99.90;;;;;;5070508;28;20841;-73
2021/09/15 00:45:00;;;;;;;6.00;4.83;;;18.90;99.90;;;;;;5069963;28;20858;-73
2021/09/15 00:47:28;;;;;;;5.10;4.60;;;18.80;99.90;;;;;;5069904;28;20886;-73
2021/09/15 00:49:55;;;;;;;7.13;4.30;;;18.80;99.90;;;;;;5069502;28;20459;-73
2021/09/15 00:52:22;;;;;;;5.70;5.20;;;18.80;99.90;;;;;;5070173;28;20469;-73
2021/09/15 00:54:49;;;;;;;5.50;5.00;;;18.80;99.90;;;;;;5069549;28;20457;-73
2021/09/15 00:57:16;;;;;;;5.83;5.20;;;18.80;99.90;;;;;;5070083;28;20874;-73
2021/09/15 00:59:43;;;;;;;5.60;5.10;;;18.90;99.90;;;;;;5069402;28;20458;-73
2021/09/15 01:02:09;;;;;;;6.23;5.63;;;18.90;99.90;;;;;;5069737;28;20466;-74
2021/09/15 01:04:38;;;;;;;6.53;5.00;;;18.90;99.90;;;;;;5069775;28;20492;-73
2021/09/15 01:07:05;;;;;;;5.87;5.37;;;18.90;99.90;;;;;;5069686;28;20562;-73
2021/09/15 01:09:35;;;;;;;5.10;4.60;;;18.90;99.90;;;;;;5069531;28;20873;-73
2021/09/15 01:12:02;;;;;;;5.43;4.93;;;18.90;99.90;;;;;;5069478;28;20466;-73
2021/09/15 01:14:29;;;;;;;5.20;4.80;;;18.80;99.90;;;;;;5069809;28;20458;-73
2021/09/15 01:16:58;;;;;;;5.73;5.07;;;18.80;99.90;;;;;;5069182;28;20862;-73
2021/09/15 01:19:26;;;;;;;6.77;6.07;;;18.80;99.90;;;;;;5069397;28;20965;-73
2021/09/15 01:21:55;;;;;;;6.83;6.20;;;18.80;99.90;;;;;;5069477;28;20982;-73
2021/09/15 01:24:23;;;;;;;6.47;5.87;;;18.80;99.90;;;;;;5069937;28;20483;-73
2021/09/15 01:26:52;;;;;;;6.10;5.50;;;18.80;99.90;;;;;;5073239;28;20549;-73
2021/09/15 01:29:21;;;;;;;5.70;5.20;;;18.80;99.90;;;;;;5072749;28;20883;-73
2021/09/15 01:31:56;;;;;;;6.20;5.60;;;18.80;99.90;;;;;;5073304;28;20466;-73
2021/09/15 01:34:23;;;;;;;6.37;5.77;;;18.90;99.90;;;;;;5073223;28;20766;-73
2021/09/15 01:36:50;;;;;;;6.00;5.40;;;18.90;99.90;;;;;;5073078;28;20872;-72
2021/09/15 01:39:18;;;;;;;6.83;6.17;;;19.00;99.90;;;;;;5072633;28;20481;-73
2021/09/15 01:41:44;;;;;;;7.10;6.07;;;19.00;99.90;;;;;;5073165;28;20974;-73
2021/09/15 01:44:11;;;;;;;5.20;4.70;;;19.00;99.90;;;;;;5070858;28;20482;-73
2021/09/15 01:46:38;;;;;;;6.40;5.87;;;19.00;99.90;;;;;;5071078;28;20458;-73
2021/09/15 01:49:04;;;;;;;7.50;5.60;;;19.00;99.90;;;;;;5070910;28;20829;-73
2021/09/15 01:51:31;;;;;;;6.07;5.57;;;19.00;99.90;;;;;;5071974;28;20462;-73
2021/09/15 01:53:58;;;;;;;6.20;5.60;;;19.00;99.90;;;;;;5072672;28;20470;-73
2021/09/15 01:56:26;;;;;;;8.87;6.40;;;19.00;99.90;;;;;;5072865;28;20470;-73
2021/09/15 01:58:52;;;;;;;7.83;5.50;;;19.00;99.90;;;;;;5072085;28;20482;-73
2021/09/15 02:01:19;;;;;;;5.87;5.27;;;19.00;99.90;;;;;;5072673;28;20462;-73
2021/09/15 02:03:46;;;;;;;5.53;5.13;;;19.00;99.90;;;;;;5072550;28;20489;-73
2021/09/15 02:06:13;;;;;;;6.57;5.57;;;19.00;99.90;;;;;;5072693;28;20458;-73
2021/09/15 02:08:39;;;;;;;6.30;5.10;;;19.00;99.90;;;;;;5072174;28;20485;-73
2021/09/15 02:11:06;;;;;;;7.83;5.77;;;19.00;99.90;;;;;;5072556;28;20466;-73
2021/09/15 02:13:34;;;;;;;6.03;5.53;;;18.90;99.90;;;;;;5072522;28;20963;-73
2021/09/15 02:16:01;;;;;;;5.80;5.20;;;18.90;99.90;;;;;;5072356;28;20465;-73
2021/09/15 02:18:27;;;;;;;7.10;5.53;;;18.90;99.90;;;;;;5071994;28;20900;-73
2021/09/15 02:20:54;;;;;;;6.33;5.73;;;18.90;99.90;;;;;;5072430;28;20454;-73
2021/09/15 02:23:21;;;;;;;6.20;5.60;;;18.80;99.90;;;;;;5071967;28;20946;-74
2021/09/15 02:25:48;;;;;;;6.50;5.50;;;18.80;99.90;;;;;;5072244;28;20466;-74
2021/09/15 02:28:14;;;;;;;6.00;5.40;;;18.80;99.90;;;;;;5071644;28;20494;-73
2021/09/15 02:30:42;;;;;;;7.17;6.47;;;18.80;99.90;;;;;;5072193;28;20458;-73
2021/09/15 02:33:09;;;;;;;7.70;6.17;;;18.80;99.90;;;;;;5072107;28;20465;-73
2021/09/15 02:35:36;;;;;;;6.63;6.03;;;18.80;99.90;;;;;;5072252;28;20465;-73
2021/09/15 02:38:02;;;;;;;5.80;5.30;;;18.80;99.90;;;;;;5070189;28;20925;-73
2021/09/15 02:40:29;;;;;;;7.20;6.50;;;18.80;99.90;;;;;;5072236;28;20530;-73
2021/09/15 02:42:56;;;;;;;6.57;5.83;;;18.80;99.90;;;;;;5071741;28;20462;-73
2021/09/15 02:45:23;;;;;;;6.43;5.80;;;18.80;99.90;;;;;;5071827;28;20494;-73
2021/09/15 02:47:51;;;;;;;7.67;5.60;;;18.80;99.90;;;;;;5071249;28;20478;-73
2021/09/15 02:50:17;;;;;;;7.70;5.90;;;18.80;99.90;;;;;;5072001;28;20467;-73
2021/09/15 02:52:44;;;;;;;6.27;5.60;;;18.80;99.90;;;;;;5071696;28;20462;-73
2021/09/15 02:55:11;;;;;;;7.70;6.30;;;18.80;99.90;;;;;;5071719;28;20454;-73
2021/09/15 02:57:38;;;;;;;6.20;5.70;;;18.80;99.90;;;;;;5071048;28;20869;-74
2021/09/15 03:00:06;;;;;;;7.80;6.20;;;18.80;99.90;;;;;;5071821;28;20466;-73
2021/09/15 03:02:33;;;;;;;5.83;5.23;;;18.90;99.90;;;;;;5071501;28;20818;-73
2021/09/15 03:05:01;;;;;;;6.63;5.93;;;18.90;99.90;;;;;;5071164;28;20485;-74
2021/09/15 03:07:28;;;;;;;6.30;5.70;;;18.80;99.90;;;;;;5071467;28;20493;-73
2021/09/15 03:09:54;;;;;;;7.17;6.47;;;18.80;99.90;;;;;;5071327;28;20459;-73
2021/09/15 03:12:21;;;;;;;6.70;6.00;;;18.90;99.90;;;;;;5071174;28;20458;-73
2021/09/15 03:14:48;;;;;;;6.43;5.93;;;18.90;99.90;;;;;;5071265;28;20462;-73
2021/09/15 03:17:14;;;;;;;6.13;5.40;;;18.90;99.90;;;;;;5070995;28;20857;-73
2021/09/15 03:19:41;;;;;;;5.77;5.27;;;18.90;99.90;;;;;;5070939;28;20470;-73
2021/09/15 03:22:09;;;;;;;6.07;5.47;;;18.90;99.90;;;;;;5071193;28;20469;-73
2021/09/15 03:24:36;;;;;;;6.00;5.40;;;18.90;99.90;;;;;;5070530;28;20490;-73
2021/09/15 03:27:03;;;;;;;5.73;5.03;;;18.90;99.90;;;;;;5070653;28;20462;-74
2021/09/15 03:29:30;;;;;;;7.47;5.60;;;18.90;99.90;;;;;;5070784;28;20518;-74
2021/09/15 03:31:57;;;;;;;5.67;5.17;;;18.90;99.90;;;;;;5070840;28;20463;-74
2021/09/15 03:34:24;;;;;;;5.20;4.80;;;18.90;99.90;;;;;;5061907;28;20460;-74
2021/09/15 03:36:51;;;;;;;5.30;4.43;;;18.90;99.90;;;;;;5053016;28;20455;-74
2021/09/15 03:39:19;;;;;;;5.77;5.13;;;19.00;99.90;;;;;;5058541;28;20479;-74
2021/09/15 03:41:47;;;;;;;6.10;5.47;;;19.00;99.90;;;;;;5062060;28;20458;-73
2021/09/15 03:44:14;;;;;;;6.03;5.43;;;19.00;99.90;;;;;;5057981;28;20553;-73
2021/09/15 03:46:41;;;;;;;6.10;5.50;;;19.00;99.90;;;;;;5049400;28;20977;-72
2021/09/15 03:49:08;;;;;;;5.10;4.60;;;19.00;99.90;;;;;;5048733;28;20793;-72
2021/09/15 03:51:34;;;;;;;5.90;5.30;;;19.00;99.90;;;;;;5049792;28;20460;-73
2021/09/15 03:54:01;;;;;;;5.83;5.10;;;19.00;99.90;;;;;;5049450;28;20474;-73
2021/09/15 03:56:29;;;;;;;5.60;5.00;;;19.00;99.90;;;;;;5050197;28;20463;-72
2021/09/15 03:58:56;;;;;;;5.33;4.83;;;19.00;99.90;;;;;;5049771;28;20489;-74
2021/09/15 04:01:22;;;;;;;6.00;5.40;;;19.00;99.90;;;;;;5057482;28;20455;-74
2021/09/15 04:03:49;;;;;;;5.93;5.33;;;19.00;99.90;;;;;;5055746;28;20835;-74
2021/09/15 04:06:16;;;;;;;7.30;5.03;;;19.00;99.90;;;;;;5067012;28;20447;-74
2021/09/15 04:08:43;;;;;;;5.10;4.60;;;19.00;99.90;;;;;;5067585;28;20513;-74
2021/09/15 04:11:09;;;;;;;4.90;4.40;;;19.00;99.90;;;;;;5070184;28;20463;-74
2021/09/15 04:13:38;;;;;;;5.60;5.10;;;19.00;99.90;;;;;;5070518;28;20488;-74
2021/09/15 04:16:05;;;;;;;5.90;5.30;;;19.00;99.90;;;;;;5070276;28;20465;-74
2021/09/15 04:18:32;;;;;;;6.30;5.70;;;19.00;99.90;;;;;;5069498;28;20483;-75
2021/09/15 04:20:59;;;;;;;5.70;5.20;;;18.90;99.90;;;;;;5070159;28;20832;-75
2021/09/15 04:23:29;;;;;;;5.77;4.90;;;18.90;99.90;;;;;;5069916;28;20454;-75
2021/09/15 04:31:25;;;;;;;5.90;5.30;;;19.00;99.90;;;;;;5070032;28;20474;-76
2021/09/15 04:33:53;;;;;;;5.90;5.30;;;19.00;99.90;;;;;;5069427;28;20458;-75
2021/09/15 04:36:20;;;;;;;5.87;4.83;;;19.00;99.90;;;;;;5070097;28;20462;-75
2021/09/15 04:38:48;;;;;;;7.47;4.80;;;19.00;99.90;;;;;;5069133;28;20490;-75
2021/09/15 04:41:14;;;;;;;6.33;4.87;;;19.00;99.90;;;;;;5069832;28;20462;-75
2021/09/15 04:43:43;;;;;;;5.57;5.10;;;19.00;99.90;;;;;;5069868;28;20465;-75
2021/09/15 04:46:09;;;;;;;6.10;5.60;;;19.00;99.90;;;;;;5069761;28;20486;-75
2021/09/15 04:48:37;;;;;;;5.47;4.93;;;19.00;99.90;;;;;;5069285;28;20847;-75
2021/09/15 04:51:04;;;;;;;5.90;5.30;;;19.00;99.90;;;;;;5069416;28;20954;-75
2021/09/15 04:53:31;;;;;;;5.47;4.90;;;18.90;99.90;;;;;;5069832;28;20470;-75
2021/09/15 04:55:57;;;;;;;6.80;5.40;;;18.90;99.90;;;;;;5069263;28;20455;-75
2021/09/15 04:58:25;;;;;;;5.73;4.87;;;18.90;99.90;;;;;;5069269;28;20474;-75
2021/09/15 05:00:53;;;;;;;7.53;4.77;;;18.90;99.90;;;;;;5070690;28;20471;-75
2021/09/15 05:03:19;;;;;;;5.97;5.47;;;18.90;99.90;;;;;;5073427;28;20832;-75
2021/09/15 05:05:46;;;;;;;6.20;5.60;;;18.90;99.90;;;;;;5073338;28;20482;-75
2021/09/15 05:08:13;;;;;;;5.70;5.20;;;18.90;99.90;;;;;;5072960;28;20493;-75
2021/09/15 05:10:39;;;;;;;5.23;4.73;;;18.90;99.90;;;;;;5073482;28;20459;-75
2021/09/15 05:13:06;;;;;;;5.90;5.10;;;18.90;99.90;;;;;;5073484;28;20466;-75
2021/09/15 05:15:33;;;;;;;6.37;5.77;;;18.80;99.90;;;;;;5073438;28;20465;-75
2021/09/15 05:18:01;;;;;;;6.50;5.80;;;18.90;99.90;;;;;;5072365;28;21039;-75
2021/09/15 05:20:28;;;;;;;7.40;5.33;;;18.80;99.90;;;;;;5073158;28;20531;-75
2021/09/15 05:22:55;;;;;;;5.93;5.33;;;18.80;99.90;;;;;;5072952;28;20465;-75
2021/09/15 05:25:24;;;;;;;5.40;4.90;;;18.90;99.90;;;;;;5073072;28;20486;-75
2021/09/15 05:27:50;;;;;;;5.70;5.10;;;18.90;99.90;;;;;;5072592;28;20511;-75
2021/09/15 05:30:17;;;;;;;6.20;5.30;;;18.80;99.90;;;;;;5073225;28;20835;-75
2021/09/15 05:32:44;;;;;;;6.30;5.70;;;18.80;99.90;;;;;;5072870;28;20835;-75
2021/09/15 05:35:14;;;;;;;6.10;5.50;;;18.80;99.90;;;;;;5073868;28;20447;-75
2021/09/15 05:37:41;;;;;;;8.37;5.53;;;18.70;99.90;;;;;;5073169;28;20478;-75
2021/09/15 05:40:09;;;;;;;8.03;5.70;;;18.70;99.90;;;;;;5073497;28;20825;-75
2021/09/15 05:42:36;;;;;;;6.50;5.50;;;18.70;99.90;;;;;;5073022;28;20469;-75
2021/09/15 05:45:03;;;;;;;6.97;6.33;;;18.70;99.90;;;;;;5073050;28;20497;-75
2021/09/15 05:47:30;;;;;;;7.20;5.60;;;18.70;99.90;;;;;;5072914;28;20485;-75
2021/09/15 05:49:57;;;;;;;7.20;5.40;;;18.70;99.90;;;;;;5072485;28;20466;-75
2021/09/15 05:52:26;;;;;;;8.50;5.50;;;18.70;99.90;;;;;;5072819;28;20458;-75
2021/09/15 05:54:53;;;;;;;7.33;5.17;;;18.70;99.90;;;;;;5072865;28;20477;-75
2021/09/15 05:57:19;;;;;;;7.23;5.60;;;18.70;99.90;;;;;;5072819;28;20994;-75
2021/09/15 05:59:46;;;;;;;8.17;6.07;;;18.60;99.90;;;;;;5072388;28;20467;-75
2021/09/15 06:02:13;;;;;;;7.27;6.20;;;18.60;99.90;;;;;;5073041;28;20458;-75
2021/09/15 06:04:40;;;;;;;6.57;5.77;;;18.50;99.90;;;;;;5072261;28;20464;-75
2021/09/15 06:07:07;;;;;;;7.07;5.97;;;18.50;99.90;;;;;;5072862;28;20840;-75
2021/09/15 06:09:35;;;;;;;7.30;5.60;;;18.60;99.90;;;;;;5071978;28;20463;-75
2021/09/15 06:12:02;;;;;;;7.00;6.30;;;18.50;99.90;;;;;;5072361;28;20466;-75
2021/09/15 06:14:28;;;;;;;7.50;6.77;;;18.50;99.90;;;;;;5072586;28;20454;-75
2021/09/15 06:19:23;;;;;;;7.47;6.67;;;18.50;99.90;;;;;;5068480;28;20478;-69
2021/09/15 06:21:50;;;;;;;7.40;6.17;;;18.40;99.90;;;;;;5072581;28;20462;-69
2021/09/15 06:24:16;;;;;;;8.67;6.37;;;18.40;99.90;;;;;;5072268;28;20455;-69
2021/09/15 06:26:44;;;;;;;7.70;6.03;;;18.40;99.90;;;;;;5072217;28;20490;-68
2021/09/15 06:29:11;;;;;;;7.30;5.67;;;18.40;99.90;;;;;;5071760;28;21029;-68
2021/09/15 06:31:38;;;;;;;13.07;6.97;;;18.40;99.90;;;;;;5072245;28;20462;-69
2021/09/15 06:34:05;;;;;;;7.20;5.93;;;18.40;99.90;;;;;;5072389;28;20462;-69
2021/09/15 06:36:32;;;;;;;10.67;6.70;;;18.40;99.90;;;;;;5071772;28;20494;-68
2021/09/15 06:38:59;;;;;;;8.97;6.00;;;18.40;99.90;;;;;;5071585;28;20482;-68
2021/09/15 06:41:26;;;;;;;6.60;5.90;;;18.40;99.90;;;;;;5072042;28;20466;-69
2021/09/15 06:43:54;;;;;;;6.23;5.63;;;18.40;99.90;;;;;;5071847;28;20462;-69
2021/09/15 06:46:22;;;;;;;8.17;5.83;;;18.40;99.90;;;;;;5071858;28;20483;-68
2021/09/15 06:48:49;;;;;;;8.23;5.80;;;18.40;99.90;;;;;;5071326;28;21013;-69
2021/09/15 06:51:16;;;;;;;6.60;5.90;;;18.40;99.90;;;;;;5071953;28;21220;-69
2021/09/15 06:53:43;;;;;;;7.27;6.03;;;18.40;99.90;;;;;;5072153;28;20462;-69
2021/09/15 06:56:10;;;;;;;8.60;6.20;;;18.40;99.90;;;;;;5071713;28;20465;-69
2021/09/15 06:58:37;;;;;;;7.53;6.20;;;18.40;99.90;;;;;;5071299;28;20480;-68
2021/09/15 07:01:05;;;;;;;7.70;5.90;;;18.40;99.90;;;;;;5070981;28;20467;-69
2021/09/15 07:03:32;;;;;;;7.57;5.97;;;18.40;99.90;;;;;;5071713;28;20463;-69
2021/09/15 07:05:58;;;;;;;6.60;6.00;;;18.40;99.90;;;;;;5071528;28;20486;-69
2021/09/15 07:08:25;;;;;;;7.27;6.00;;;18.40;99.90;;;;;;5070878;28;20502;-69
2021/09/15 07:10:52;;;;;;;9.40;5.83;;;18.40;99.90;;;;;;5071859;28;20461;-69
2021/09/15 07:13:19;;;;;;;7.40;5.90;;;18.40;99.90;;;;;;5071146;28;20463;-69
2021/09/15 07:15:46;;;;;;;7.10;5.40;;;18.50;99.90;;;;;;5067916;28;20464;-67
2021/09/15 07:18:14;;;;;;;6.37;5.77;;;18.40;99.90;;;;;;5066916;28;20522;-68
2021/09/15 07:20:41;;;;;;;5.90;5.30;;;18.50;99.90;;;;;;5070974;28;20458;-69
2021/09/15 07:23:09;;;;;;;6.90;5.90;;;18.50;99.90;;;;;;5069925;28;20458;-69
2021/09/15 07:25:36;;;;;;;6.20;5.60;;;18.50;99.90;;;;;;5070491;28;21118;-68
2021/09/15 07:28:03;;;;;;;7.23;5.13;;;18.60;99.90;;;;;;5069931;28;20479;-69
2021/09/15 07:30:30;;;;;;;6.77;6.00;;;18.60;99.90;;;;;;5070022;28;20498;-69
2021/09/15 07:32:57;;;;;;;7.60;4.80;;;18.60;99.90;;;;;;5070543;28;21012;-69
2021/09/15 07:35:25;;;;;;;5.87;5.27;;;18.60;99.90;;;;;;5069827;28;20481;-68
2021/09/15 07:37:52;;;;;;;6.23;5.10;;;18.60;99.90;;;;;;5067730;28;20485;-70
2021/09/15 07:40:20;;;;;;;6.20;5.20;;;18.70;99.90;;;;;;5066965;28;20557;-68
2021/09/15 07:42:48;;;;;;;6.30;4.90;;;18.70;99.90;;;;;;5069506;28;20498;-68
2021/09/15 07:45:15;;;;;;;5.37;4.33;;;18.70;99.90;;;;;;5068631;28;20536;-68
2021/09/15 07:47:43;;;;;;;4.90;4.23;;;18.70;99.90;;;;;;5069186;28;20536;-68
2021/09/15 07:50:11;;;;;;;5.30;4.80;;;18.70;99.90;;;;;;5069059;28;21132;-69
2021/09/15 07:52:42;;;;;;;6.83;4.60;;;18.60;99.90;;;;;;5069504;28;20485;-69
2021/09/15 07:55:11;;;;;;;4.30;3.90;;;18.60;99.90;;;;;;5069369;28;20838;-69
2021/09/15 07:57:42;;;;;;;8.67;4.47;;;18.70;99.90;;;;;;5069058;28;21178;-69
2021/09/15 08:00:10;;;;;;;4.83;4.30;;;18.70;99.90;;;;;;5068363;28;20459;-68
2021/09/15 08:02:38;;;;;;;5.77;4.90;;;18.70;99.90;;;;;;5069489;28;20458;-68
2021/09/15 08:05:06;;;;;;;4.60;4.20;;;18.70;99.90;;;;;;5062286;28;20840;-68
2021/09/15 08:07:33;;;;;;;9.13;4.70;;;18.60;99.90;;;;;;5049081;28;20894;-69
2021/09/15 08:10:02;;;;;;;6.30;4.53;;;18.70;99.90;;;;;;5060192;28;20805;-69
2021/09/15 08:12:30;;;;;;;5.03;4.40;;;18.70;99.90;;;;;;5068583;28;20458;-68
2021/09/15 08:14:57;;;;;;;5.43;4.60;;;18.70;99.90;;;;;;5069500;28;20954;-68
2021/09/15 08:17:24;;;;;;;6.83;4.10;;;18.70;99.90;;;;;;5068251;28;20485;-68
2021/09/15 08:19:52;;;;;;;5.30;4.80;;;18.70;99.90;;;;;;5068633;28;20455;-68
2021/09/15 08:22:18;;;;;;;7.73;4.83;;;18.70;99.90;;;;;;5059668;28;20459;-68
2021/09/15 08:24:45;;;;;;;5.00;3.97;;;18.70;99.90;;;;;;5048524;28;20464;-68
2021/09/15 08:27:14;;;;;;;8.83;4.50;;;18.70;99.90;;;;;;5065442;28;21152;-68
2021/09/15 08:29:40;;;;;;;5.30;4.53;;;18.70;99.90;;;;;;5068968;28;20458;-68
2021/09/15 08:32:07;;;;;;;8.57;5.10;;;18.70;99.90;;;;;;5069707;28;20459;-68
2021/09/15 08:34:34;;;;;;;6.67;4.60;;;18.70;99.90;;;;;;5068522;28;20470;-69
2021/09/15 08:37:01;;;;;;;5.13;4.57;;;18.70;99.90;;;;;;5069253;28;20458;-69
2021/09/15 08:39:28;;;;;;;7.27;5.40;;;18.70;99.90;;;;;;5068746;28;20459;-69
2021/09/15 08:41:54;;;;;;;5.83;4.90;;;18.70;99.90;;;;;;5069563;28;20465;-69
2021/09/15 08:44:22;;;;;;;6.07;5.47;;;18.60;99.90;;;;;;5069255;28;20462;-69
2021/09/15 08:46:51;;;;;;;5.83;5.30;;;18.50;99.90;;;;;;5069602;28;21032;-68
2021/09/15 08:49:19;;;;;;;8.53;6.10;;;18.60;99.90;;;;;;5068497;28;20858;-68
2021/09/15 08:51:46;;;;;;;5.90;5.30;;;18.50;99.90;;;;;;5069761;28;20462;-69
2021/09/15 08:54:14;;;;;;;7.30;5.10;;;18.50;99.90;;;;;;5069185;28;20454;-69
2021/09/15 08:56:41;;;;;;;7.53;5.90;;;18.50;99.90;;;;;;5069648;28;20572;-69
2021/09/15 08:59:08;;;;;;;6.63;5.30;;;18.50;99.90;;;;;;5068894;28;20482;-69
2021/09/15 09:01:36;;;;;;;6.60;4.87;;;18.50;99.90;;;;;;5068480;28;20845;-69
2021/09/15 09:04:03;;;;;;;7.47;5.20;;;18.50;99.90;;;;;;5069494;28;20454;-68
2021/09/15 09:06:33;;;;;;;6.50;4.40;;;18.40;99.90;;;;;;5068857;28;20486;-69
2021/09/15 09:09:03;;;;;;;6.20;4.43;;;18.40;99.90;;;;;;5068975;28;20489;-69
2021/09/15 09:11:33;;;;;;;5.43;4.90;;;18.40;99.90;;;;;;5068902;28;20466;-69
2021/09/15 09:14:01;;;;;;;5.50;4.17;;;18.40;99.90;;;;;;5069408;28;20465;-69
2021/09/15 09:16:43;;;;;;;5.23;4.27;;;18.40;99.90;;;;;;5069084;28;20466;-69
2021/09/15 09:19:11;;;;;;;4.97;4.07;;;18.40;99.90;;;;;;5068254;28;20501;-68
2021/09/15 09:21:40;;;;;;;5.10;4.43;;;18.40;99.90;;;;;;5069331;28;20462;-69
2021/09/15 09:24:11;;;;;;;4.77;4.27;;;18.40;99.90;;;;;;5068979;28;20946;-69
2021/09/15 09:26:52;;;;;;;5.00;4.40;;;18.30;99.90;;;;;;5069328;28;20887;-68
2021/09/15 09:29:21;;;;;;;5.03;4.50;;;18.30;99.90;;;;;;5067927;28;20478;-69
2021/09/15 09:32:01;;;;;;;4.67;4.17;;;18.20;99.90;;;;;;5070835;28;20472;-69
2021/09/15 09:34:30;;;;;;;5.37;3.93;;;18.20;99.90;;;;;;5070728;28;20469;-69
2021/09/15 09:37:01;;;;;;;4.53;4.13;;;18.20;99.90;;;;;;5069593;28;20463;-68
2021/09/15 09:39:40;;;;;;;4.80;4.23;;;18.20;99.90;;;;;;5068604;28;20462;-68
2021/09/15 09:42:29;;;;;;;4.90;4.07;;;18.20;99.90;;;;;;5069036;28;20484;-68
2021/09/15 09:45:10;;;;;;;6.10;4.80;;;18.20;99.90;;;;;;5069367;28;20488;-69
2021/09/15 09:47:39;;;;;;;5.47;4.00;;;18.20;99.90;;;;;;5071545;28;20490;-68
2021/09/15 09:50:09;;;;;;;5.63;4.50;;;18.30;99.90;;;;;;5072213;28;20454;-69
2021/09/15 09:52:51;;;;;;;4.37;4.00;;;18.30;99.90;;;;;;5072340;28;20473;-69
2021/09/15 09:55:19;;;;;;;5.00;4.47;;;18.40;99.90;;;;;;5072407;28;20458;-69
2021/09/15 09:57:48;;;;;;;4.63;4.10;;;18.40;99.90;;;;;;5072327;28;20479;-68
2021/09/15 10:00:16;;;;;;;7.70;4.70;;;18.40;99.90;;;;;;5071744;28;20470;-69
2021/09/15 10:02:44;;;;;;;6.33;4.20;;;18.40;99.90;;;;;;5072590;28;20556;-68
2021/09/15 10:05:11;;;;;;;5.37;4.60;;;18.50;99.90;;;;;;5072050;28;20458;-69
2021/09/15 10:07:38;;;;;;;4.70;4.20;;;18.40;99.90;;;;;;5071956;28;20493;-69
2021/09/15 10:10:06;;;;;;;4.50;4.10;;;18.50;99.90;;;;;;5071762;28;20465;-69
2021/09/15 10:12:33;;;;;;;5.33;4.30;;;18.60;99.90;;;;;;5071742;28;20466;-69
2021/09/15 10:15:00;;;;;;;5.80;4.53;;;18.70;99.90;;;;;;5072246;28;20470;-69
2021/09/15 10:17:31;;;;;;;6.20;5.30;;;18.70;99.90;;;;;;5071379;28;20487;-69
2021/09/15 10:19:59;;;;;;;5.80;5.27;;;18.80;99.90;;;;;;5069081;28;21171;-68
2021/09/15 10:22:30;;;;;;;7.00;4.40;;;18.90;99.90;;;;;;5071674;28;20837;-68
2021/09/15 10:24:59;;;;;;;5.70;4.40;;;19.00;99.90;;;;;;5069090;28;20462;-69
2021/09/15 10:27:27;;;;;;;4.90;4.37;;;19.00;99.90;;;;;;5071888;28;20493;-69
2021/09/15 10:30:10;;;;;;;5.77;4.87;;;19.00;99.90;;;;;;5071563;28;20809;-68
2021/09/15 10:32:38;;;;;;;5.10;4.50;;;19.10;99.90;;;;;;5071970;28;20458;-68
2021/09/15 10:35:07;;;;;;;5.10;4.60;;;19.20;99.90;;;;;;5072017;28;20876;-68
2021/09/15 10:37:56;;;;;;;4.97;4.20;;;19.10;99.90;;;;;;5072150;28;20474;-68
2021/09/15 10:40:46;;;;;;;6.47;4.87;;;19.20;99.90;;;;;;5071014;28;20450;-68
2021/09/15 10:43:40;;;;;;;6.70;4.80;;;19.20;99.90;;;;;;5071803;28;20463;-70
2021/09/15 10:46:26;;;;;;;4.43;4.03;;;19.10;99.90;;;;;;5071531;28;20462;-68
2021/09/15 10:49:42;;;;;;;7.13;5.70;;;19.10;99.90;;;;;;5071448;28;20834;-69
2021/09/15 10:52:27;;;;;;;8.47;4.30;;;19.10;99.90;;;;;;5066931;28;20463;-68
2021/09/15 10:54:56;;;;;;;5.00;4.53;;;19.10;99.90;;;;;;5071834;28;20454;-68
2021/09/15 10:57:32;;;;;;;6.07;4.93;;;19.10;99.90;;;;;;5070067;28;20855;-68
2021/09/15 11:00:01;;;;;;;4.40;4.00;;;19.20;99.90;;;;;;5070827;28;20454;-69
2021/09/15 11:02:31;;;;;;;5.20;4.43;;;19.20;99.90;;;;;;5070119;28;21034;-68
2021/09/15 11:04:59;;;;;;;5.67;5.17;;;19.30;99.90;;;;;;5071072;28;20536;-69
2021/09/15 11:08:01;;;;;;;6.43;4.63;;;19.40;99.90;;;;;;5070626;28;20497;-68
2021/09/15 11:10:45;;;;;;;6.07;4.80;;;19.50;99.90;;;;;;5070366;28;20474;-68
2021/09/15 11:13:14;;;;;;;5.97;5.20;;;19.50;99.90;;;;;;5070808;28;20457;-68
2021/09/15 11:15:43;;;;;;;5.40;4.90;;;19.50;99.90;;;;;;5070632;28;20465;-67
2021/09/15 11:18:21;;;;;;;5.80;4.90;;;19.50;99.90;;;;;;5070626;28;21005;-68
2021/09/15 11:20:55;;;;;;;5.50;5.00;;;19.50;99.90;;;;;;5068769;28;20464;-68
2021/09/15 11:23:27;;;;;;;6.07;5.40;;;19.50;99.90;;;;;;5070251;28;20462;-68
2021/09/15 11:25:54;;;;;;;8.97;5.00;;;19.50;99.90;;;;;;5071193;28;21165;-68
2021/09/15 11:28:23;;;;;;;5.27;4.50;;;19.50;99.90;;;;;;5069650;28;21024;-68
2021/09/15 11:31:00;;;;;;;12.83;5.13;;;19.50;99.90;;;;;;5070629;28;20462;-69
2021/09/15 11:33:27;;;;;;;4.77;4.37;;;19.50;99.90;;;;;;5069941;28;20523;-68
2021/09/15 11:35:57;;;;;;;5.17;4.67;;;19.50;99.90;;;;;;5070440;28;20467;-68
2021/09/15 11:38:26;;;;;;;5.83;5.03;;;19.50;99.90;;;;;;5068986;28;20963;-67
2021/09/15 11:41:03;;;;;;;5.70;5.00;;;19.50;99.90;;;;;;5070177;28;20458;-68
2021/09/15 11:43:30;;;;;;;7.90;4.80;;;19.50;99.90;;;;;;5070372;28;20963;-68
2021/09/15 11:45:56;;;;;;;5.27;4.70;;;19.50;99.90;;;;;;5070156;28;20466;-68
2021/09/15 11:48:27;;;;;;;5.77;5.07;;;19.50;99.90;;;;;;5069610;28;20490;-67
2021/09/15 11:50:54;;;;;;;5.00;4.50;;;19.60;99.90;;;;;;5070458;28;20470;-68
2021/09/15 11:53:23;;;;;;;5.67;5.10;;;19.60;99.90;;;;;;5069748;28;20470;-68
2021/09/15 11:55:59;;;;;;;6.87;4.90;;;19.50;99.90;;;;;;5069933;28;20451;-68
2021/09/15 11:58:26;;;;;;;5.60;4.73;;;19.50;99.90;;;;;;5069628;28;20561;-68
2021/09/15 12:00:53;;;;;;;13.10;5.20;;;19.50;99.90;;;;;;5070650;28;20462;-68
2021/09/15 12:03:25;;;;;;;22.97;5.87;;;19.50;99.90;;;;;;5070125;28;20847;-68
2021/09/15 12:05:52;;;;;;;5.70;5.10;;;19.50;99.90;;;;;;5070865;28;20983;-68
2021/09/15 12:08:19;;;;;;;6.77;5.10;;;19.50;99.90;;;;;;5064786;28;20483;-68
2021/09/15 12:10:47;;;;;;;5.53;4.53;;;19.50;99.90;;;;;;5067740;28;21174;-68
2021/09/15 12:13:17;;;;;;;5.40;4.90;;;19.60;99.90;;;;;;5069541;28;20462;-67
2021/09/15 12:15:45;;;;;;;7.23;4.90;;;19.60;99.90;;;;;;5069577;28;20806;-68
2021/09/15 12:18:11;;;;;;;4.63;4.23;;;19.60;99.90;;;;;;5069462;28;20501;-70
2021/09/15 12:20:40;;;;;;;6.63;5.07;;;19.60;99.90;;;;;;5069239;28;20854;-68
2021/09/15 12:23:07;;;;;;;6.33;4.90;;;19.60;99.90;;;;;;5069426;28;20458;-67
2021/09/15 12:25:34;;;;;;;4.97;4.50;;;19.70;99.90;;;;;;5068192;28;21150;-67
2021/09/15 12:28:01;;;;;;;7.10;4.93;;;19.70;99.90;;;;;;5069492;28;20494;-68
2021/09/15 12:30:29;;;;;;;4.97;4.47;;;19.70;99.90;;;;;;5068704;28;20519;-67
2021/09/15 12:32:57;;;;;;;5.30;4.87;;;19.70;99.90;;;;;;5069839;28;20472;-68
2021/09/15 12:35:26;;;;;;;5.57;4.73;;;19.80;99.90;;;;;;5069111;28;20553;-68
2021/09/15 12:38:00;;;;;;;7.57;5.40;;;19.80;99.90;;;;;;5069516;28;20475;-67
2021/09/15 12:40:27;;;;;;;6.03;5.10;;;19.90;99.90;;;;;;5068457;28;20461;-67
2021/09/15 12:42:59;;;;;;;5.37;4.73;;;19.90;99.90;;;;;;5069530;28;20473;-68
2021/09/15 12:45:26;;;;;;;5.70;5.20;;;20.00;99.90;;;;;;5069057;28;20501;-67
2021/09/15 12:47:54;;;;;;;8.00;4.77;;;20.10;99.90;;;;;;5069409;28;21025;-67
2021/09/15 12:50:23;;;;;;;6.00;5.03;;;20.10;99.90;;;;;;5068807;28;20466;-70
2021/09/15 12:52:57;;;;;;;10.10;4.83;;;20.10;99.90;;;;;;5069147;28;20475;-67
2021/09/15 12:55:26;;;;;;;5.10;4.60;;;20.20;99.90;;;;;;5066646;28;20953;-68
2021/09/15 12:57:58;;;;;;;5.63;5.07;;;20.30;99.90;;;;;;5069251;28;20467;-68
2021/09/15 13:00:26;;;;;;;5.30;4.80;;;20.30;99.90;;;;;;5068681;28;20475;-67